sensor_id;sensor_type;location;lat;lon;timestamp;P1;durP1;ratioP1;P2;durP2;ratioP2
59571;SDS011;59406;45.602;11.904;2023-01-15T00:01:37;34.33;;;19.53;;
59571;SDS011;59406;45.602;11.904;2023-01-15T00:04:04;35.75;;;19.40;;
59571;SDS011;59406;45.602;11.904;2023-01-15T00:06:34;33.47;;;20.58;;
59571;SDS011;59406;45.602;11.904;2023-01-15T00:09:01;37.72;;;20.88;;
59571;SDS011;59406;45.602;11.904;2023-01-15T00:11:28;43.50;;;23.90;;
59571;SDS011;59406;45.602;11.904;2023-01-15T00:13:54;27.98;;;17.88;;
59571;SDS011;59406;45.602;11.904;2023-01-15T00:16:21;38.88;;;23.30;;
59571;SDS011;59406;45.602;11.904;2023-01-15T00:18:49;37.80;;;20.95;;
59571;SDS011;59406;45.602;11.904;2023-01-15T00:21:16;31.20;;;17.73;;
59571;SDS011;59406;45.602;11.904;2023-01-15T00:23:42;31.50;;;19.13;;
59571;SDS011;59406;45.602;11.904;2023-01-15T00:26:27;27.63;;;16.80;;
59571;SDS011;59406;45.602;11.904;2023-01-15T00:29:13;29.73;;;17.38;;
59571;SDS011;59406;45.602;11.904;2023-01-15T00:31:39;27.92;;;16.13;;
59571;SDS011;59406;45.602;11.904;2023-01-15T00:34:06;43.20;;;26.00;;
59571;SDS011;59406;45.602;11.904;2023-01-15T00:36:32;42.30;;;24.48;;
59571;SDS011;59406;45.602;11.904;2023-01-15T00:38:58;44.35;;;26.05;;
59571;SDS011;59406;45.602;11.904;2023-01-15T00:41:25;40.97;;;24.17;;
59571;SDS011;59406;45.602;11.904;2023-01-15T00:43:51;42.88;;;24.60;;
59571;SDS011;59406;45.602;11.904;2023-01-15T00:46:17;46.10;;;27.43;;
59571;SDS011;59406;45.602;11.904;2023-01-15T00:48:43;43.40;;;26.33;;
59571;SDS011;59406;45.602;11.904;2023-01-15T00:51:09;48.53;;;27.70;;
59571;SDS011;59406;45.602;11.904;2023-01-15T00:53:35;47.40;;;26.63;;
59571;SDS011;59406;45.602;11.904;2023-01-15T00:56:00;42.83;;;25.23;;
59571;SDS011;59406;45.602;11.904;2023-01-15T00:58:26;40.10;;;22.92;;
59571;SDS011;59406;45.602;11.904;2023-01-15T01:00:53;44.60;;;24.77;;
59571;SDS011;59406;45.602;11.904;2023-01-15T01:03:22;33.63;;;20.70;;
59571;SDS011;59406;45.602;11.904;2023-01-15T01:05:49;39.75;;;23.35;;
59571;SDS011;59406;45.602;11.904;2023-01-15T01:08:15;38.08;;;22.98;;
59571;SDS011;59406;45.602;11.904;2023-01-15T01:10:47;35.50;;;22.30;;
59571;SDS011;59406;45.602;11.904;2023-01-15T01:13:13;39.75;;;23.88;;
59571;SDS011;59406;45.602;11.904;2023-01-15T01:15:39;43.58;;;25.38;;
59571;SDS011;59406;45.602;11.904;2023-01-15T01:18:05;40.80;;;23.23;;
59571;SDS011;59406;45.602;11.904;2023-01-15T01:20:31;40.33;;;24.23;;
59571;SDS011;59406;45.602;11.904;2023-01-15T01:22:58;45.03;;;25.15;;
59571;SDS011;59406;45.602;11.904;2023-01-15T01:25:23;45.17;;;25.60;;
59571;SDS011;59406;45.602;11.904;2023-01-15T01:27:49;43.67;;;24.33;;
59571;SDS011;59406;45.602;11.904;2023-01-15T01:30:15;44.08;;;24.27;;
59571;SDS011;59406;45.602;11.904;2023-01-15T01:32:44;39.17;;;22.60;;
59571;SDS011;59406;45.602;11.904;2023-01-15T01:35:10;42.33;;;23.52;;
59571;SDS011;59406;45.602;11.904;2023-01-15T01:37:36;38.65;;;24.10;;
59571;SDS011;59406;45.602;11.904;2023-01-15T01:40:03;38.03;;;20.88;;
59571;SDS011;59406;45.602;11.904;2023-01-15T01:42:29;37.08;;;20.60;;
59571;SDS011;59406;45.602;11.904;2023-01-15T01:45:02;40.47;;;20.30;;
59571;SDS011;59406;45.602;11.904;2023-01-15T01:47:31;32.28;;;19.90;;
59571;SDS011;59406;45.602;11.904;2023-01-15T01:49:59;34.50;;;18.95;;
59571;SDS011;59406;45.602;11.904;2023-01-15T01:52:44;29.85;;;15.65;;
59571;SDS011;59406;45.602;11.904;2023-01-15T01:55:14;24.87;;;14.77;;
59571;SDS011;59406;45.602;11.904;2023-01-15T01:57:42;24.13;;;13.40;;
59571;SDS011;59406;45.602;11.904;2023-01-15T02:00:09;25.60;;;14.85;;
59571;SDS011;59406;45.602;11.904;2023-01-15T02:02:36;26.02;;;14.68;;
59571;SDS011;59406;45.602;11.904;2023-01-15T02:05:03;29.55;;;16.08;;
59571;SDS011;59406;45.602;11.904;2023-01-15T02:07:32;22.30;;;12.50;;
59571;SDS011;59406;45.602;11.904;2023-01-15T02:09:59;30.02;;;15.00;;
59571;SDS011;59406;45.602;11.904;2023-01-15T02:12:30;24.58;;;12.82;;
59571;SDS011;59406;45.602;11.904;2023-01-15T02:20:22;25.87;;;13.83;;
59571;SDS011;59406;45.602;11.904;2023-01-15T02:23:13;20.88;;;11.38;;
59571;SDS011;59406;45.602;11.904;2023-01-15T02:28:32;21.23;;;12.45;;
59571;SDS011;59406;45.602;11.904;2023-01-15T02:31:36;25.50;;;15.98;;
59571;SDS011;59406;45.602;11.904;2023-01-15T02:34:09;24.20;;;15.73;;
59571;SDS011;59406;45.602;11.904;2023-01-15T02:36:47;29.58;;;16.45;;
59571;SDS011;59406;45.602;11.904;2023-01-15T02:39:18;28.67;;;17.85;;
59571;SDS011;59406;45.602;11.904;2023-01-15T02:41:47;22.73;;;14.80;;
59571;SDS011;59406;45.602;11.904;2023-01-15T02:44:16;23.08;;;13.73;;
59571;SDS011;59406;45.602;11.904;2023-01-15T02:46:46;20.67;;;12.20;;
59571;SDS011;59406;45.602;11.904;2023-01-15T02:49:14;23.90;;;14.10;;
59571;SDS011;59406;45.602;11.904;2023-01-15T02:51:45;26.17;;;15.10;;
59571;SDS011;59406;45.602;11.904;2023-01-15T02:54:15;21.08;;;12.93;;
59571;SDS011;59406;45.602;11.904;2023-01-15T02:56:44;19.17;;;11.55;;
59571;SDS011;59406;45.602;11.904;2023-01-15T02:59:14;22.50;;;12.07;;
59571;SDS011;59406;45.602;11.904;2023-01-15T03:01:47;20.45;;;11.68;;
59571;SDS011;59406;45.602;11.904;2023-01-15T03:04:21;21.20;;;11.82;;
59571;SDS011;59406;45.602;11.904;2023-01-15T03:07:16;26.73;;;14.32;;
59571;SDS011;59406;45.602;11.904;2023-01-15T03:09:47;18.25;;;9.95;;
59571;SDS011;59406;45.602;11.904;2023-01-15T03:12:27;19.53;;;11.10;;
59571;SDS011;59406;45.602;11.904;2023-01-15T03:15:21;24.27;;;11.77;;
59571;SDS011;59406;45.602;11.904;2023-01-15T03:18:09;22.48;;;12.23;;
59571;SDS011;59406;45.602;11.904;2023-01-15T03:20:40;21.65;;;11.93;;
59571;SDS011;59406;45.602;11.904;2023-01-15T03:23:12;24.65;;;13.70;;
59571;SDS011;59406;45.602;11.904;2023-01-15T03:25:41;22.13;;;12.70;;
59571;SDS011;59406;45.602;11.904;2023-01-15T03:28:11;19.63;;;11.00;;
59571;SDS011;59406;45.602;11.904;2023-01-15T03:30:42;18.65;;;11.05;;
59571;SDS011;59406;45.602;11.904;2023-01-15T03:33:07;21.80;;;11.70;;
59571;SDS011;59406;45.602;11.904;2023-01-15T03:35:40;21.47;;;12.70;;
59571;SDS011;59406;45.602;11.904;2023-01-15T03:38:20;18.20;;;9.82;;
59571;SDS011;59406;45.602;11.904;2023-01-15T03:40:52;16.77;;;9.60;;
59571;SDS011;59406;45.602;11.904;2023-01-15T03:43:50;19.23;;;11.02;;
59571;SDS011;59406;45.602;11.904;2023-01-15T03:52:01;19.77;;;12.27;;
59571;SDS011;59406;45.602;11.904;2023-01-15T04:00:20;21.85;;;12.40;;
59571;SDS011;59406;45.602;11.904;2023-01-15T04:03:07;24.53;;;12.93;;
59571;SDS011;59406;45.602;11.904;2023-01-15T04:05:34;24.42;;;13.52;;
59571;SDS011;59406;45.602;11.904;2023-01-15T04:08:02;26.50;;;13.55;;
59571;SDS011;59406;45.602;11.904;2023-01-15T04:10:30;21.65;;;12.23;;
59571;SDS011;59406;45.602;11.904;2023-01-15T04:12:56;21.43;;;11.20;;
59571;SDS011;59406;45.602;11.904;2023-01-15T04:15:21;17.88;;;11.00;;
59571;SDS011;59406;45.602;11.904;2023-01-15T04:17:47;18.77;;;11.70;;
59571;SDS011;59406;45.602;11.904;2023-01-15T04:20:13;20.30;;;11.47;;
59571;SDS011;59406;45.602;11.904;2023-01-15T04:22:39;20.60;;;10.52;;
59571;SDS011;59406;45.602;11.904;2023-01-15T04:25:05;16.80;;;9.47;;
59571;SDS011;59406;45.602;11.904;2023-01-15T04:27:31;16.60;;;9.90;;
59571;SDS011;59406;45.602;11.904;2023-01-15T04:29:57;18.33;;;9.30;;
59571;SDS011;59406;45.602;11.904;2023-01-15T04:32:23;18.43;;;11.07;;
59571;SDS011;59406;45.602;11.904;2023-01-15T04:34:49;20.08;;;11.18;;
59571;SDS011;59406;45.602;11.904;2023-01-15T04:37:15;20.95;;;10.82;;
59571;SDS011;59406;45.602;11.904;2023-01-15T04:39:42;18.30;;;10.23;;
59571;SDS011;59406;45.602;11.904;2023-01-15T04:42:11;17.55;;;9.73;;
59571;SDS011;59406;45.602;11.904;2023-01-15T04:44:56;20.92;;;11.77;;
59571;SDS011;59406;45.602;11.904;2023-01-15T04:47:22;21.05;;;11.07;;
59571;SDS011;59406;45.602;11.904;2023-01-15T04:49:48;20.60;;;11.40;;
59571;SDS011;59406;45.602;11.904;2023-01-15T04:52:14;18.45;;;10.30;;
59571;SDS011;59406;45.602;11.904;2023-01-15T04:54:40;20.88;;;12.25;;
59571;SDS011;59406;45.602;11.904;2023-01-15T04:57:06;18.70;;;9.93;;
59571;SDS011;59406;45.602;11.904;2023-01-15T04:59:32;21.17;;;12.93;;
59571;SDS011;59406;45.602;11.904;2023-01-15T05:01:58;22.73;;;12.90;;
59571;SDS011;59406;45.602;11.904;2023-01-15T05:04:23;18.40;;;9.97;;
59571;SDS011;59406;45.602;11.904;2023-01-15T05:06:49;18.00;;;10.15;;
59571;SDS011;59406;45.602;11.904;2023-01-15T05:09:15;21.48;;;11.35;;
59571;SDS011;59406;45.602;11.904;2023-01-15T05:11:41;15.83;;;8.77;;
59571;SDS011;59406;45.602;11.904;2023-01-15T05:14:07;18.48;;;8.93;;
59571;SDS011;59406;45.602;11.904;2023-01-15T05:16:33;21.08;;;11.68;;
59571;SDS011;59406;45.602;11.904;2023-01-15T05:19:00;19.47;;;11.03;;
59571;SDS011;59406;45.602;11.904;2023-01-15T05:21:28;21.35;;;12.55;;
59571;SDS011;59406;45.602;11.904;2023-01-15T05:23:56;21.98;;;11.50;;
59571;SDS011;59406;45.602;11.904;2023-01-15T05:26:25;22.38;;;11.98;;
59571;SDS011;59406;45.602;11.904;2023-01-15T05:28:53;23.15;;;13.65;;
59571;SDS011;59406;45.602;11.904;2023-01-15T05:31:20;23.70;;;13.00;;
59571;SDS011;59406;45.602;11.904;2023-01-15T05:33:47;19.38;;;10.43;;
59571;SDS011;59406;45.602;11.904;2023-01-15T05:36:14;26.25;;;12.77;;
59571;SDS011;59406;45.602;11.904;2023-01-15T05:38:42;18.83;;;10.98;;
59571;SDS011;59406;45.602;11.904;2023-01-15T05:41:10;20.73;;;12.38;;
59571;SDS011;59406;45.602;11.904;2023-01-15T05:43:58;29.43;;;15.73;;
59571;SDS011;59406;45.602;11.904;2023-01-15T05:46:26;20.85;;;10.57;;
59571;SDS011;59406;45.602;11.904;2023-01-15T05:48:52;18.38;;;10.23;;
59571;SDS011;59406;45.602;11.904;2023-01-15T05:51:18;17.35;;;9.65;;
59571;SDS011;59406;45.602;11.904;2023-01-15T05:53:44;21.83;;;10.20;;
59571;SDS011;59406;45.602;11.904;2023-01-15T05:56:10;21.40;;;10.85;;
59571;SDS011;59406;45.602;11.904;2023-01-15T05:58:36;26.80;;;13.50;;
59571;SDS011;59406;45.602;11.904;2023-01-15T06:01:06;27.67;;;12.95;;
59571;SDS011;59406;45.602;11.904;2023-01-15T06:03:33;19.27;;;11.07;;
59571;SDS011;59406;45.602;11.904;2023-01-15T06:05:59;26.37;;;13.63;;
59571;SDS011;59406;45.602;11.904;2023-01-15T06:08:25;23.50;;;12.02;;
59571;SDS011;59406;45.602;11.904;2023-01-15T06:10:51;22.88;;;11.75;;
59571;SDS011;59406;45.602;11.904;2023-01-15T06:13:17;24.17;;;13.17;;
59571;SDS011;59406;45.602;11.904;2023-01-15T06:15:43;26.63;;;15.60;;
59571;SDS011;59406;45.602;11.904;2023-01-15T06:18:10;20.35;;;12.73;;
59571;SDS011;59406;45.602;11.904;2023-01-15T06:20:36;23.58;;;13.15;;
59571;SDS011;59406;45.602;11.904;2023-01-15T06:23:03;23.73;;;13.35;;
59571;SDS011;59406;45.602;11.904;2023-01-15T06:25:33;20.93;;;12.00;;
59571;SDS011;59406;45.602;11.904;2023-01-15T06:28:04;22.48;;;13.95;;
59571;SDS011;59406;45.602;11.904;2023-01-15T06:30:31;23.80;;;14.05;;
59571;SDS011;59406;45.602;11.904;2023-01-15T06:32:58;26.05;;;14.77;;
59571;SDS011;59406;45.602;11.904;2023-01-15T06:35:24;21.97;;;11.27;;
59571;SDS011;59406;45.602;11.904;2023-01-15T06:37:51;20.33;;;11.80;;
59571;SDS011;59406;45.602;11.904;2023-01-15T06:40:16;20.45;;;11.02;;
59571;SDS011;59406;45.602;11.904;2023-01-15T06:42:42;30.50;;;15.93;;
59571;SDS011;59406;45.602;11.904;2023-01-15T06:45:27;23.33;;;13.13;;
59571;SDS011;59406;45.602;11.904;2023-01-15T06:48:22;24.35;;;14.95;;
59571;SDS011;59406;45.602;11.904;2023-01-15T06:50:49;27.20;;;15.75;;
59571;SDS011;59406;45.602;11.904;2023-01-15T06:53:15;20.90;;;12.80;;
59571;SDS011;59406;45.602;11.904;2023-01-15T06:55:41;21.37;;;12.80;;
59571;SDS011;59406;45.602;11.904;2023-01-15T06:58:07;23.30;;;14.02;;
59571;SDS011;59406;45.602;11.904;2023-01-15T07:00:33;23.30;;;15.27;;
59571;SDS011;59406;45.602;11.904;2023-01-15T07:02:59;24.17;;;14.70;;
59571;SDS011;59406;45.602;11.904;2023-01-15T07:05:26;27.65;;;15.90;;
59571;SDS011;59406;45.602;11.904;2023-01-15T07:07:53;23.40;;;14.80;;
59571;SDS011;59406;45.602;11.904;2023-01-15T07:10:19;26.63;;;16.65;;
59571;SDS011;59406;45.602;11.904;2023-01-15T07:12:45;24.33;;;13.70;;
59571;SDS011;59406;45.602;11.904;2023-01-15T07:15:11;24.58;;;14.40;;
59571;SDS011;59406;45.602;11.904;2023-01-15T07:17:36;24.15;;;15.35;;
59571;SDS011;59406;45.602;11.904;2023-01-15T07:20:02;39.63;;;22.80;;
59571;SDS011;59406;45.602;11.904;2023-01-15T07:22:29;27.60;;;16.00;;
59571;SDS011;59406;45.602;11.904;2023-01-15T07:24:55;61.13;;;33.70;;
59571;SDS011;59406;45.602;11.904;2023-01-15T07:27:21;42.70;;;24.27;;
59571;SDS011;59406;45.602;11.904;2023-01-15T07:29:48;31.43;;;19.00;;
59571;SDS011;59406;45.602;11.904;2023-01-15T07:32:15;28.65;;;16.98;;
59571;SDS011;59406;45.602;11.904;2023-01-15T07:34:42;27.05;;;16.55;;
59571;SDS011;59406;45.602;11.904;2023-01-15T07:37:08;29.63;;;16.73;;
59571;SDS011;59406;45.602;11.904;2023-01-15T07:39:34;26.20;;;14.70;;
59571;SDS011;59406;45.602;11.904;2023-01-15T07:42:00;29.48;;;16.77;;
59571;SDS011;59406;45.602;11.904;2023-01-15T07:44:44;24.38;;;14.68;;
59571;SDS011;59406;45.602;11.904;2023-01-15T07:47:29;28.33;;;16.75;;
59571;SDS011;59406;45.602;11.904;2023-01-15T07:52:40;34.33;;;22.30;;
59571;SDS011;59406;45.602;11.904;2023-01-15T07:55:07;29.35;;;20.17;;
59571;SDS011;59406;45.602;11.904;2023-01-15T07:57:34;34.60;;;21.05;;
59571;SDS011;59406;45.602;11.904;2023-01-15T08:00:02;27.92;;;18.02;;
59571;SDS011;59406;45.602;11.904;2023-01-15T08:02:29;28.83;;;18.88;;
59571;SDS011;59406;45.602;11.904;2023-01-15T08:04:55;29.17;;;18.20;;
59571;SDS011;59406;45.602;11.904;2023-01-15T08:07:21;30.13;;;20.65;;
59571;SDS011;59406;45.602;11.904;2023-01-15T08:09:47;33.25;;;21.52;;
59571;SDS011;59406;45.602;11.904;2023-01-15T08:12:13;33.70;;;21.10;;
59571;SDS011;59406;45.602;11.904;2023-01-15T08:14:57;28.65;;;18.42;;
59571;SDS011;59406;45.602;11.904;2023-01-15T08:17:42;30.83;;;18.25;;
59571;SDS011;59406;45.602;11.904;2023-01-15T08:22:38;35.67;;;23.95;;
59571;SDS011;59406;45.602;11.904;2023-01-15T08:25:05;35.73;;;21.50;;
59571;SDS011;59406;45.602;11.904;2023-01-15T08:27:35;36.55;;;24.15;;
59571;SDS011;59406;45.602;11.904;2023-01-15T08:30:03;36.25;;;23.55;;
59571;SDS011;59406;45.602;11.904;2023-01-15T08:32:29;33.35;;;21.70;;
59571;SDS011;59406;45.602;11.904;2023-01-15T08:34:55;31.35;;;20.75;;
59571;SDS011;59406;45.602;11.904;2023-01-15T08:37:21;45.60;;;29.33;;
59571;SDS011;59406;45.602;11.904;2023-01-15T08:39:48;39.35;;;24.63;;
59571;SDS011;59406;45.602;11.904;2023-01-15T08:42:15;34.22;;;21.95;;
59571;SDS011;59406;45.602;11.904;2023-01-15T08:44:41;34.95;;;23.33;;
59571;SDS011;59406;45.602;11.904;2023-01-15T08:47:07;33.17;;;21.17;;
59571;SDS011;59406;45.602;11.904;2023-01-15T08:49:33;31.58;;;21.90;;
59571;SDS011;59406;45.602;11.904;2023-01-15T08:51:59;32.73;;;20.00;;
59571;SDS011;59406;45.602;11.904;2023-01-15T08:54:25;33.10;;;20.20;;
59571;SDS011;59406;45.602;11.904;2023-01-15T08:56:51;34.38;;;22.45;;
59571;SDS011;59406;45.602;11.904;2023-01-15T08:59:17;28.05;;;18.25;;
59571;SDS011;59406;45.602;11.904;2023-01-15T09:01:43;27.75;;;18.55;;
59571;SDS011;59406;45.602;11.904;2023-01-15T09:04:12;29.80;;;19.93;;
59571;SDS011;59406;45.602;11.904;2023-01-15T09:06:43;29.83;;;19.23;;
59571;SDS011;59406;45.602;11.904;2023-01-15T09:09:09;31.08;;;20.38;;
59571;SDS011;59406;45.602;11.904;2023-01-15T09:11:39;29.02;;;19.48;;
59571;SDS011;59406;45.602;11.904;2023-01-15T09:14:09;40.92;;;25.08;;
59571;SDS011;59406;45.602;11.904;2023-01-15T09:16:36;40.03;;;26.77;;
59571;SDS011;59406;45.602;11.904;2023-01-15T09:19:03;30.52;;;21.17;;
59571;SDS011;59406;45.602;11.904;2023-01-15T09:21:29;32.92;;;20.65;;
59571;SDS011;59406;45.602;11.904;2023-01-15T09:23:55;30.65;;;19.10;;
59571;SDS011;59406;45.602;11.904;2023-01-15T09:26:31;32.47;;;22.77;;
59571;SDS011;59406;45.602;11.904;2023-01-15T09:29:02;31.58;;;19.23;;
59571;SDS011;59406;45.602;11.904;2023-01-15T09:31:29;27.75;;;19.75;;
59571;SDS011;59406;45.602;11.904;2023-01-15T09:33:55;30.45;;;19.98;;
59571;SDS011;59406;45.602;11.904;2023-01-15T09:36:31;31.13;;;19.70;;
59571;SDS011;59406;45.602;11.904;2023-01-15T09:38:59;31.75;;;21.25;;
59571;SDS011;59406;45.602;11.904;2023-01-15T09:41:30;32.67;;;22.17;;
59571;SDS011;59406;45.602;11.904;2023-01-15T09:44:36;30.42;;;21.52;;
59571;SDS011;59406;45.602;11.904;2023-01-15T09:47:25;32.78;;;22.15;;
59571;SDS011;59406;45.602;11.904;2023-01-15T09:52:27;30.92;;;20.98;;
59571;SDS011;59406;45.602;11.904;2023-01-15T09:57:45;34.63;;;21.47;;
59571;SDS011;59406;45.602;11.904;2023-01-15T10:00:19;32.22;;;21.23;;
59571;SDS011;59406;45.602;11.904;2023-01-15T10:02:56;29.15;;;18.88;;
59571;SDS011;59406;45.602;11.904;2023-01-15T10:05:43;30.02;;;20.63;;
59571;SDS011;59406;45.602;11.904;2023-01-15T10:08:19;27.25;;;17.52;;
59571;SDS011;59406;45.602;11.904;2023-01-15T10:11:25;30.67;;;20.30;;
59571;SDS011;59406;45.602;11.904;2023-01-15T10:13:48;25.65;;;16.83;;
59571;SDS011;59406;45.602;11.904;2023-01-15T10:16:22;26.48;;;16.50;;
59571;SDS011;59406;45.602;11.904;2023-01-15T10:18:51;22.85;;;14.65;;
59571;SDS011;59406;45.602;11.904;2023-01-15T10:24:14;21.77;;;14.73;;
59571;SDS011;59406;45.602;11.904;2023-01-15T10:26:53;22.27;;;13.32;;
59571;SDS011;59406;45.602;11.904;2023-01-15T10:45:29;20.92;;;13.15;;
59571;SDS011;59406;45.602;11.904;2023-01-15T10:48:11;21.58;;;14.10;;
59571;SDS011;59406;45.602;11.904;2023-01-15T10:50:38;23.63;;;14.10;;
59571;SDS011;59406;45.602;11.904;2023-01-15T10:53:07;25.40;;;14.60;;
59571;SDS011;59406;45.602;11.904;2023-01-15T10:55:41;23.38;;;14.55;;
59571;SDS011;59406;45.602;11.904;2023-01-15T10:58:24;22.38;;;16.10;;
59571;SDS011;59406;45.602;11.904;2023-01-15T11:00:54;22.80;;;15.50;;
59571;SDS011;59406;45.602;11.904;2023-01-15T11:03:57;25.23;;;16.40;;
59571;SDS011;59406;45.602;11.904;2023-01-15T11:06:20;27.98;;;17.08;;
59571;SDS011;59406;45.602;11.904;2023-01-15T11:08:51;24.50;;;17.48;;
59571;SDS011;59406;45.602;11.904;2023-01-15T11:11:34;24.90;;;14.60;;
59571;SDS011;59406;45.602;11.904;2023-01-15T11:17:20;33.23;;;21.77;;
59571;SDS011;59406;45.602;11.904;2023-01-15T11:22:48;26.63;;;17.75;;
59571;SDS011;59406;45.602;11.904;2023-01-15T11:25:14;27.17;;;17.75;;
59571;SDS011;59406;45.602;11.904;2023-01-15T11:27:51;29.15;;;19.30;;
59571;SDS011;59406;45.602;11.904;2023-01-15T11:30:51;27.73;;;17.20;;
59571;SDS011;59406;45.602;11.904;2023-01-15T11:33:21;23.15;;;15.15;;
59571;SDS011;59406;45.602;11.904;2023-01-15T11:35:53;25.25;;;16.25;;
59571;SDS011;59406;45.602;11.904;2023-01-15T11:38:23;28.48;;;18.73;;
59571;SDS011;59406;45.602;11.904;2023-01-15T11:40:51;21.67;;;14.00;;
59571;SDS011;59406;45.602;11.904;2023-01-15T11:43:29;23.43;;;16.07;;
59571;SDS011;59406;45.602;11.904;2023-01-15T11:49:18;25.83;;;14.40;;
59571;SDS011;59406;45.602;11.904;2023-01-15T11:52:04;21.48;;;13.82;;
59571;SDS011;59406;45.602;11.904;2023-01-15T11:54:41;20.60;;;13.23;;
59571;SDS011;59406;45.602;11.904;2023-01-15T11:57:10;20.73;;;12.83;;
59571;SDS011;59406;45.602;11.904;2023-01-15T11:59:36;20.20;;;13.48;;
59571;SDS011;59406;45.602;11.904;2023-01-15T12:02:03;22.75;;;14.98;;
59571;SDS011;59406;45.602;11.904;2023-01-15T12:05:12;21.17;;;13.65;;
59571;SDS011;59406;45.602;11.904;2023-01-15T12:07:42;23.15;;;13.82;;
59571;SDS011;59406;45.602;11.904;2023-01-15T12:19:00;20.98;;;14.20;;
59571;SDS011;59406;45.602;11.904;2023-01-15T12:24:13;24.07;;;14.80;;
59571;SDS011;59406;45.602;11.904;2023-01-15T12:29:48;24.58;;;15.88;;
59571;SDS011;59406;45.602;11.904;2023-01-15T12:32:34;21.38;;;15.10;;
59571;SDS011;59406;45.602;11.904;2023-01-15T12:35:17;26.35;;;15.43;;
59571;SDS011;59406;45.602;11.904;2023-01-15T12:37:53;21.47;;;13.23;;
59571;SDS011;59406;45.602;11.904;2023-01-15T12:40:53;23.15;;;14.30;;
59571;SDS011;59406;45.602;11.904;2023-01-15T12:43:25;27.90;;;17.13;;
59571;SDS011;59406;45.602;11.904;2023-01-15T12:46:24;25.55;;;15.57;;
59571;SDS011;59406;45.602;11.904;2023-01-15T12:51:53;22.90;;;14.47;;
59571;SDS011;59406;45.602;11.904;2023-01-15T12:54:32;22.67;;;14.57;;
59571;SDS011;59406;45.602;11.904;2023-01-15T12:57:16;22.63;;;16.58;;
59571;SDS011;59406;45.602;11.904;2023-01-15T12:59:53;21.85;;;14.73;;
59571;SDS011;59406;45.602;11.904;2023-01-15T13:07:54;21.10;;;13.18;;
59571;SDS011;59406;45.602;11.904;2023-01-15T13:12:50;21.85;;;12.95;;
59571;SDS011;59406;45.602;11.904;2023-01-15T13:15:24;21.00;;;13.43;;
59571;SDS011;59406;45.602;11.904;2023-01-15T13:25:45;21.73;;;13.32;;
59571;SDS011;59406;45.602;11.904;2023-01-15T13:36:54;23.80;;;14.50;;
59571;SDS011;59406;45.602;11.904;2023-01-15T13:39:23;21.85;;;13.60;;
59571;SDS011;59406;45.602;11.904;2023-01-15T13:41:57;23.77;;;15.40;;
59571;SDS011;59406;45.602;11.904;2023-01-15T13:44:47;19.97;;;12.23;;
59571;SDS011;59406;45.602;11.904;2023-01-15T13:47:22;22.95;;;15.95;;
59571;SDS011;59406;45.602;11.904;2023-01-15T13:49:53;22.75;;;15.18;;
59571;SDS011;59406;45.602;11.904;2023-01-15T13:54:54;21.83;;;14.48;;
59571;SDS011;59406;45.602;11.904;2023-01-15T14:00:04;26.67;;;17.30;;
59571;SDS011;59406;45.602;11.904;2023-01-15T14:02:33;24.98;;;15.85;;
59571;SDS011;59406;45.602;11.904;2023-01-15T14:08:00;28.30;;;16.75;;
59571;SDS011;59406;45.602;11.904;2023-01-15T14:13:05;22.27;;;13.93;;
59571;SDS011;59406;45.602;11.904;2023-01-15T14:18:36;25.95;;;17.00;;
59571;SDS011;59406;45.602;11.904;2023-01-15T14:24:20;24.37;;;15.73;;
59571;SDS011;59406;45.602;11.904;2023-01-15T14:27:23;25.00;;;15.57;;
59571;SDS011;59406;45.602;11.904;2023-01-15T14:35:26;25.10;;;16.60;;
59571;SDS011;59406;45.602;11.904;2023-01-15T14:38:02;25.90;;;18.50;;
59571;SDS011;59406;45.602;11.904;2023-01-15T14:40:32;30.10;;;19.15;;
59571;SDS011;59406;45.602;11.904;2023-01-15T14:43:00;29.92;;;20.10;;
59571;SDS011;59406;45.602;11.904;2023-01-15T14:45:38;33.95;;;20.85;;
59571;SDS011;59406;45.602;11.904;2023-01-15T14:50:42;38.73;;;24.70;;
59571;SDS011;59406;45.602;11.904;2023-01-15T14:58:13;35.45;;;21.48;;
59571;SDS011;59406;45.602;11.904;2023-01-15T15:00:47;29.60;;;20.47;;
59571;SDS011;59406;45.602;11.904;2023-01-15T15:03:19;30.42;;;20.02;;
59571;SDS011;59406;45.602;11.904;2023-01-15T15:05:50;28.65;;;18.75;;
59571;SDS011;59406;45.602;11.904;2023-01-15T15:08:17;27.55;;;18.85;;
59571;SDS011;59406;45.602;11.904;2023-01-15T15:10:45;29.52;;;19.25;;
59571;SDS011;59406;45.602;11.904;2023-01-15T15:13:25;27.03;;;17.47;;
59571;SDS011;59406;45.602;11.904;2023-01-15T15:16:03;31.02;;;20.73;;
59571;SDS011;59406;45.602;11.904;2023-01-15T15:21:28;30.40;;;17.73;;
59571;SDS011;59406;45.602;11.904;2023-01-15T15:26:38;27.63;;;16.57;;
59571;SDS011;59406;45.602;11.904;2023-01-15T15:31:33;33.38;;;20.83;;
59571;SDS011;59406;45.602;11.904;2023-01-15T15:34:01;27.00;;;17.73;;
59571;SDS011;59406;45.602;11.904;2023-01-15T15:36:28;30.88;;;20.02;;
59571;SDS011;59406;45.602;11.904;2023-01-15T15:38:57;30.83;;;20.00;;
59571;SDS011;59406;45.602;11.904;2023-01-15T15:41:28;30.40;;;20.10;;
59571;SDS011;59406;45.602;11.904;2023-01-15T15:44:17;28.80;;;18.70;;
59571;SDS011;59406;45.602;11.904;2023-01-15T15:47:34;27.48;;;16.73;;
59571;SDS011;59406;45.602;11.904;2023-01-15T15:50:22;27.73;;;18.48;;
59571;SDS011;59406;45.602;11.904;2023-01-15T15:52:53;33.17;;;22.20;;
59571;SDS011;59406;45.602;11.904;2023-01-15T15:55:21;32.65;;;20.80;;
59571;SDS011;59406;45.602;11.904;2023-01-15T15:57:55;33.55;;;21.52;;
59571;SDS011;59406;45.602;11.904;2023-01-15T16:00:29;29.20;;;18.80;;
59571;SDS011;59406;45.602;11.904;2023-01-15T16:03:14;29.25;;;19.27;;
59571;SDS011;59406;45.602;11.904;2023-01-15T16:08:27;31.27;;;19.67;;
59571;SDS011;59406;45.602;11.904;2023-01-15T16:11:03;39.35;;;22.33;;
59571;SDS011;59406;45.602;11.904;2023-01-15T16:13:42;38.75;;;24.00;;
59571;SDS011;59406;45.602;11.904;2023-01-15T16:16:10;38.50;;;22.55;;
59571;SDS011;59406;45.602;11.904;2023-01-15T16:18:50;37.43;;;23.30;;
59571;SDS011;59406;45.602;11.904;2023-01-15T16:26:27;41.47;;;25.88;;
59571;SDS011;59406;45.602;11.904;2023-01-15T16:29:00;42.17;;;26.05;;
59571;SDS011;59406;45.602;11.904;2023-01-15T16:31:36;41.17;;;25.63;;
59571;SDS011;59406;45.602;11.904;2023-01-15T16:34:02;35.25;;;21.75;;
59571;SDS011;59406;45.602;11.904;2023-01-15T16:36:36;38.53;;;23.65;;
59571;SDS011;59406;45.602;11.904;2023-01-15T16:39:05;40.83;;;23.45;;
59571;SDS011;59406;45.602;11.904;2023-01-15T16:41:39;33.80;;;20.73;;
59571;SDS011;59406;45.602;11.904;2023-01-15T16:44:06;37.67;;;23.37;;
59571;SDS011;59406;45.602;11.904;2023-01-15T16:46:52;36.58;;;21.42;;
59571;SDS011;59406;45.602;11.904;2023-01-15T16:51:50;34.80;;;20.63;;
59571;SDS011;59406;45.602;11.904;2023-01-15T16:56:58;39.13;;;21.87;;
59571;SDS011;59406;45.602;11.904;2023-01-15T17:02:39;41.05;;;26.08;;
59571;SDS011;59406;45.602;11.904;2023-01-15T17:04:45;48.65;;;29.30;;
59571;SDS011;59406;45.602;11.904;2023-01-15T17:09:50;34.90;;;21.55;;